Time;durP1;ratioP1;P1;durP2;ratioP2;P2;SDS_P1;SDS_P2;PMS_P1;PMS_P2;Temp;Humidity;BMP_temperature;BMP_pressure;BME280_temperature;BME280_humidity;BME280_pressure;Samples;Min_cycle;Max_cycle;Signal;HPM_P1;HPM_P2
2023/05/17 00:01:41;;;;;;;3.07;3.07;;;;;;;-145.94;65.76;78136.22;5096198;28;20213;-68
2023/05/17 00:04:08;;;;;;;4.20;4.00;;;;;;;-145.94;66.25;78138.25;5096664;28;20192;-68
2023/05/17 00:06:34;;;;;;;3.53;3.43;;;;;;;-145.94;66.09;78142.34;5096012;28;20215;-68
2023/05/17 00:09:02;;;;;;;3.10;3.10;;;;;;;-145.94;66.30;78144.38;5096307;28;20201;-68
2023/05/17 00:11:28;;;;;;;4.60;4.43;;;;;;;-145.94;66.47;78146.41;5095934;28;20223;-68
2023/05/17 00:13:54;;;;;;;3.90;3.80;;;;;;;-145.94;66.13;78144.38;5095956;28;20234;-68
2023/05/17 00:16:21;;;;;;;3.97;3.67;;;;;;;-145.94;66.68;78144.38;5096242;28;20182;-68
2023/05/17 00:18:47;;;;;;;4.43;4.37;;;;;;;-145.94;66.56;78152.53;5095858;28;20186;-68
2023/05/17 00:21:14;;;;;;;4.00;3.90;;;;;;;-145.94;66.92;78160.69;5095777;28;20189;-68
2023/05/17 00:23:40;;;;;;;4.73;4.37;;;;;;;-145.94;66.55;78162.72;5095755;28;20186;-68
2023/05/17 00:26:07;;;;;;;4.03;3.83;;;;;;;-145.94;66.66;78152.53;5095685;28;20656;-68
2023/05/17 00:28:33;;;;;;;3.97;3.77;;;;;;;-145.94;67.06;78156.59;5095485;28;20215;-68
2023/05/17 00:31:00;;;;;;;3.40;3.30;;;;;;;-145.94;67.23;78156.59;5095622;28;20545;-68
2023/05/17 00:33:28;;;;;;;3.50;3.50;;;;;;;-145.94;67.32;78160.69;5077450;28;20615;-68
2023/05/17 00:35:55;;;;;;;4.27;4.17;;;;;;;-145.94;67.05;78156.59;5077663;28;20193;-68
2023/05/17 00:38:21;;;;;;;5.23;3.90;;;;;;;-145.94;67.18;78164.78;5077194;28;20270;-68
2023/05/17 00:40:49;;;;;;;3.97;3.97;;;;;;;-145.94;67.00;78162.72;5095971;28;20242;-68
2023/05/17 00:43:15;;;;;;;4.20;3.90;;;;;;;-145.94;67.21;78168.84;5095340;28;20255;-68
2023/05/17 00:45:41;;;;;;;3.60;3.60;;;;;;;-145.94;67.30;78164.78;5095314;28;20190;-68
2023/05/17 00:48:08;;;;;;;4.47;4.30;;;;;;;-145.94;66.98;78166.81;5095474;28;20201;-68
2023/05/17 00:50:35;;;;;;;4.17;4.17;;;;;;;-145.94;66.97;78164.78;5095199;28;20601;-68
2023/05/17 00:53:01;;;;;;;3.57;3.57;;;;;;;-145.94;67.10;78160.69;5077070;28;20188;-68
2023/05/17 00:55:29;;;;;;;4.50;4.23;;;;;;;-145.94;67.02;78150.50;5095080;28;20233;-68
2023/05/17 00:57:55;;;;;;;4.53;4.33;;;;;;;-145.94;66.73;78160.69;5076823;28;20259;-68
2023/05/17 01:00:22;;;;;;;4.37;4.27;;;;;;;-145.94;67.07;78162.72;5076821;28;20205;-68
2023/05/17 01:02:49;;;;;;;4.70;4.40;;;;;;;-145.94;66.98;78166.81;5076859;28;20202;-68
2023/05/17 01:05:16;;;;;;;4.43;4.33;;;;;;;-145.94;66.85;78164.78;5076599;28;20273;-68
2023/05/17 01:07:42;;;;;;;5.20;4.83;;;;;;;-145.94;67.12;78174.97;5076655;28;20224;-68
2023/05/17 01:10:09;;;;;;;5.00;4.57;;;;;;;-145.94;67.05;78183.13;5076735;28;20193;-68
2023/05/17 01:13:01;;;;;;;5.00;4.70;;;;;;;-145.94;67.08;78170.88;5094771;28;20656;-68
2023/05/17 01:15:31;;;;;;;4.63;4.33;;;;;;;-145.94;67.34;78185.16;5094775;28;20185;-68
2023/05/17 01:18:22;;;;;;;5.20;4.73;;;;;;;-145.94;67.48;78193.31;5095372;28;20618;-68
2023/05/17 01:20:51;;;;;;;6.10;5.57;;;;;;;-145.94;67.62;78199.44;5076454;28;20656;-68
2023/05/17 01:23:42;;;;;;;5.23;4.87;;;;;;;-145.94;68.00;78209.66;5094616;28;20189;-68
2023/05/17 01:26:16;;;;;;;5.27;5.17;;;;;;;-145.94;68.00;78209.66;5076368;28;20190;-68
2023/05/17 01:28:45;;;;;;;5.73;5.60;;;;;;;-145.94;67.97;78217.81;5094645;28;20664;-68
2023/05/17 01:31:13;;;;;;;6.10;5.60;;;;;;;-145.94;67.80;78207.59;5094429;28;20185;-68
2023/05/17 01:33:39;;;;;;;6.13;5.57;;;;;;;-145.94;68.32;78219.84;5094372;28;20717;-68
2023/05/17 01:36:07;;;;;;;7.50;6.80;;;;;;;-145.94;68.47;78230.03;5094330;28;20181;-68
2023/05/17 01:38:34;;;;;;;5.23;5.20;;;;;;;-145.94;68.48;78236.16;5075968;28;20224;-68
2023/05/17 01:41:15;;;;;;;5.93;5.67;;;;;;;-145.94;68.46;78236.16;5076023;28;20227;-68
2023/05/17 01:43:50;;;;;;;5.73;5.47;;;;;;;-145.94;68.67;78240.25;5076077;28;20639;-68
2023/05/17 01:46:27;;;;;;;6.27;5.80;;;;;;;-145.94;68.76;78240.25;5094753;28;20191;-68
2023/05/17 01:49:08;;;;;;;5.53;5.23;;;;;;;-145.94;68.98;78242.28;5094691;28;20612;-68
2023/05/17 01:51:43;;;;;;;6.40;6.20;;;;;;;-145.94;69.04;78236.16;5094415;28;20580;-68
2023/05/17 01:54:11;;;;;;;6.00;5.80;;;;;;;-145.94;69.01;78240.25;5094608;28;20208;-68
2023/05/17 01:56:42;;;;;;;5.37;5.20;;;;;;;-145.94;68.93;78240.25;5075634;28;20576;-68
2023/05/17 01:59:14;;;;;;;9.50;5.73;;;;;;;-145.94;68.82;78242.28;5075777;28;20642;-68
2023/05/17 02:01:41;;;;;;;4.87;4.80;;;;;;;-145.94;68.87;78242.28;5094175;28;20174;-68
2023/05/17 02:04:09;;;;;;;5.30;5.10;;;;;;;-145.94;69.17;78252.47;5094164;28;20232;-68
2023/05/17 02:06:35;;;;;;;5.20;5.10;;;;;;;-145.94;68.93;78248.41;5093729;28;20191;-68
2023/05/17 02:09:02;;;;;;;7.93;7.30;;;;;;;-145.94;68.87;78260.66;5093813;28;20587;-68
2023/05/17 02:11:29;;;;;;;7.20;6.57;;;;;;;-145.94;68.67;78234.13;5075636;28;20288;-68
2023/05/17 02:13:57;;;;;;;5.83;5.63;;;;;;;-145.94;68.73;78236.16;5093729;28;20177;-68
2023/05/17 02:16:24;;;;;;;6.87;6.47;;;;;;;-145.94;68.78;78244.31;5074963;28;20186;-68
2023/05/17 02:18:50;;;;;;;6.10;5.87;;;;;;;-145.94;68.65;78256.56;5094129;28;20202;-68
2023/05/17 02:21:17;;;;;;;9.00;7.50;;;;;;;-145.94;68.84;78256.56;5093569;28;20193;-68
2023/05/17 02:23:43;;;;;;;11.20;7.20;;;;;;;-145.94;69.18;78264.72;5093571;28;20227;-68
2023/05/17 02:26:10;;;;;;;7.80;7.20;;;;;;;-145.94;69.09;78256.56;5093520;28;20709;-68
2023/05/17 02:28:36;;;;;;;8.37;7.73;;;;;;;-145.94;69.20;78260.66;5093276;28;20213;-68
2023/05/17 02:31:03;;;;;;;7.23;6.60;;;;;;;-145.94;69.23;78262.69;5093516;28;20183;-68
2023/05/17 02:33:29;;;;;;;9.63;6.93;;;;;;;-145.94;69.21;78281.03;5093443;28;20194;-68
2023/05/17 02:35:56;;;;;;;8.53;7.10;;;;;;;-145.94;69.40;78289.19;5093994;28;20251;-68
2023/05/17 02:38:23;;;;;;;10.57;7.23;;;;;;;-145.94;69.36;78285.13;5093243;28;20618;-68
2023/05/17 02:40:49;;;;;;;8.87;7.83;;;;;;;-145.94;69.28;78283.09;5093621;28;20239;-68
2023/05/17 02:43:16;;;;;;;8.17;7.57;;;;;;;-145.94;69.59;78287.16;5093712;28;20182;-68
2023/05/17 02:45:43;;;;;;;8.43;7.53;;;;;;;-145.94;69.82;78295.31;5093873;28;20235;-68
2023/05/17 02:48:11;;;;;;;8.20;7.63;;;;;;;-145.94;69.76;78291.25;5093246;28;20190;-68
2023/05/17 02:50:38;;;;;;;11.10;7.37;;;;;;;-145.94;69.52;78274.94;5093287;28;20682;-68
2023/05/17 02:53:05;;;;;;;7.90;7.13;;;;;;;-145.94;69.43;78295.31;5093561;28;20593;-68
2023/05/17 02:55:31;;;;;;;7.63;7.00;;;;;;;-145.94;69.35;78295.31;5075124;28;20251;-68
2023/05/17 02:57:57;;;;;;;6.70;6.27;;;;;;;-145.94;69.59;78297.38;5093467;28;20209;-68
2023/05/17 03:00:24;;;;;;;7.33;5.60;;;;;;;-145.94;69.54;78297.38;5075110;28;20214;-68
2023/05/17 03:02:51;;;;;;;7.17;6.40;;;;;;;-145.94;69.60;78299.41;5075030;28;20221;-68
2023/05/17 03:05:17;;;;;;;14.10;7.80;;;;;;;-145.94;69.52;78307.56;5074996;28;20247;-68
2023/05/17 03:07:48;;;;;;;10.87;7.80;;;;;;;-145.94;69.92;78307.56;5075184;28;20612;-68
2023/05/17 03:10:15;;;;;;;8.43;7.70;;;;;;;-145.94;69.80;78305.53;5093097;28;20183;-68
2023/05/17 03:12:43;;;;;;;8.57;7.87;;;;;;;-145.94;69.97;78311.63;5074973;28;20190;-68
2023/05/17 03:15:10;;;;;;;8.30;7.50;;;;;;;-145.94;69.94;78307.56;5074980;28;20544;-68
2023/05/17 03:17:37;;;;;;;7.60;7.10;;;;;;;-145.94;69.89;78299.41;5074766;28;20586;-68
2023/05/17 03:20:06;;;;;;;7.30;6.87;;;;;;;-145.94;69.92;78299.41;5075469;28;20224;-68
2023/05/17 03:22:33;;;;;;;10.43;7.67;;;;;;;-145.94;70.06;78293.28;5074807;28;20751;-68
2023/05/17 03:25:01;;;;;;;12.97;7.47;;;;;;;-145.94;70.01;78293.28;5074810;28;20189;-67
2023/05/17 03:27:29;;;;;;;10.43;7.93;;;;;;;-145.94;70.13;78279.00;5075358;28;20225;-68
2023/05/17 03:29:56;;;;;;;8.27;7.80;;;;;;;-145.94;70.07;78281.03;5078585;28;20190;-68
2023/05/17 03:32:23;;;;;;;11.13;7.10;;;;;;;-145.94;70.02;78285.13;5079350;28;20221;-68
2023/05/17 03:34:50;;;;;;;10.77;7.23;;;;;;;-145.94;70.15;78272.88;5078555;28;20717;-68
2023/05/17 03:37:17;;;;;;;8.87;7.73;;;;;;;-145.94;70.11;78268.81;5078908;28;20627;-68
2023/05/17 03:39:44;;;;;;;10.53;8.00;;;;;;;-145.94;70.17;78268.81;5078391;28;20608;-68
2023/05/17 03:42:10;;;;;;;7.50;7.10;;;;;;;-145.94;69.92;78270.84;5078274;28;20762;-68
2023/05/17 03:44:37;;;;;;;8.87;7.07;;;;;;;-145.94;70.22;78264.72;5078370;28;20563;-68
2023/05/17 03:47:03;;;;;;;7.73;7.20;;;;;;;-145.94;70.29;78264.72;5096378;28;20198;-68
2023/05/17 03:49:30;;;;;;;8.40;7.73;;;;;;;-145.94;70.26;78260.66;5078202;28;20598;-68
2023/05/17 03:51:56;;;;;;;12.03;7.23;;;;;;;-145.94;70.20;78254.53;5096385;28;20242;-68
2023/05/17 03:54:23;;;;;;;8.77;7.67;;;;;;;-145.94;70.39;78254.53;5078195;28;20242;-68
2023/05/17 03:56:49;;;;;;;12.57;7.03;;;;;;;-145.94;70.29;78248.41;5096225;28;20277;-68
2023/05/17 03:59:17;;;;;;;13.63;7.63;;;;;;;-145.94;70.30;78236.16;5078298;28;20213;-68
2023/05/17 04:01:44;;;;;;;14.90;8.60;;;;;;;-145.94;70.43;78242.28;5078308;28;20190;-68
2023/05/17 04:04:12;;;;;;;9.00;7.67;;;;;;;-145.94;70.47;78225.97;5096146;28;20274;-68
2023/05/17 04:06:40;;;;;;;12.60;7.77;;;;;;;-145.94;70.30;78211.69;5078731;28;20224;-68
2023/05/17 04:09:08;;;;;;;17.17;8.43;;;;;;;-145.94;70.59;78207.59;5077923;28;20652;-68
2023/05/17 04:11:35;;;;;;;11.60;7.67;;;;;;;-145.94;70.53;78209.66;5078028;28;20191;-68
2023/05/17 04:14:01;;;;;;;16.63;7.50;;;;;;;-145.94;70.72;78205.56;5077823;28;20197;-68
2023/05/17 04:16:28;;;;;;;15.67;8.43;;;;;;;-145.94;71.07;78197.41;5077647;28;20226;-68
2023/05/17 04:18:55;;;;;;;17.30;7.93;;;;;;;-145.94;71.04;78193.31;5077702;28;20205;-67
2023/05/17 04:21:21;;;;;;;15.67;8.03;;;;;;;-145.94;70.66;78191.28;5096101;28;20234;-67
2023/05/17 04:23:49;;;;;;;10.73;7.90;;;;;;;-145.94;70.61;78181.09;5077499;28;20204;-67
2023/05/17 04:26:15;;;;;;;20.17;8.83;;;;;;;-145.94;70.82;78183.13;5095726;28;20185;-67
2023/05/17 04:28:42;;;;;;;12.83;9.13;;;;;;;-145.94;71.09;78187.22;5077385;28;20213;-67
2023/05/17 04:31:09;;;;;;;12.03;8.73;;;;;;;-145.94;70.94;78187.22;5077776;28;20688;-67
2023/05/17 04:33:36;;;;;;;11.53;8.07;;;;;;;-145.94;70.63;78183.13;5077812;28;20660;-67
2023/05/17 04:36:05;;;;;;;9.70;8.60;;;;;;;-145.94;70.77;78189.25;5077442;28;20209;-67
2023/05/17 04:38:32;;;;;;;19.60;8.73;;;;;;;-145.94;70.59;78193.31;5060232;28;20787;-68
2023/05/17 04:41:03;;;;;;;11.23;8.10;;;;;;;-145.94;70.89;78197.41;5095510;28;20212;-68
2023/05/17 04:43:32;;;;;;;12.77;7.77;;;;;;;-145.94;70.67;78191.28;5077847;28;20186;-68
2023/05/17 04:45:59;;;;;;;14.23;8.37;;;;;;;-145.94;70.61;78189.25;5077777;28;20611;-67
2023/05/17 04:48:30;;;;;;;17.40;8.70;;;;;;;-145.94;70.71;78193.31;5077005;28;20237;-68
2023/05/17 04:51:02;;;;;;;12.47;8.20;;;;;;;-145.94;70.68;78197.41;5077305;28;20177;-67
2023/05/17 04:53:30;;;;;;;17.43;8.37;;;;;;;-145.94;70.63;78205.56;5077016;28;20200;-67
2023/05/17 04:55:58;;;;;;;15.93;8.53;;;;;;;-145.94;70.53;78205.56;5077036;28;20626;-67
2023/05/17 04:58:25;;;;;;;16.43;8.07;;;;;;;-145.94;70.38;78199.44;5076956;28;20241;-67
2023/05/17 05:00:56;;;;;;;18.07;9.13;;;;;;;-145.94;70.44;78203.53;5077222;28;20196;-67
2023/05/17 05:03:23;;;;;;;15.97;9.00;;;;;;;-145.94;70.69;78203.53;5076817;28;20674;-67
2023/05/17 05:05:50;;;;;;;20.83;8.33;;;;;;;-145.94;70.68;78203.53;5076967;28;20565;-67
2023/05/17 05:08:16;;;;;;;8.87;8.03;;;;;;;-145.94;70.34;78195.38;5076655;28;20219;-67
2023/05/17 05:10:44;;;;;;;22.90;7.57;;;;;;;-145.94;70.53;78199.44;5077188;28;20218;-67
2023/05/17 05:13:13;;;;;;;17.37;8.30;;;;;;;-145.94;70.24;78199.44;5076591;28;20239;-67
2023/05/17 05:15:40;;;;;;;13.93;9.53;;;;;;;-145.94;70.47;78197.41;5077267;28;20190;-67
2023/05/17 05:18:07;;;;;;;17.17;8.50;;;;;;;-145.94;70.12;78189.25;5076367;28;20620;-68
2023/05/17 05:20:33;;;;;;;16.30;8.33;;;;;;;-145.94;70.23;78183.13;5076458;28;20192;-68
2023/05/17 05:23:04;;;;;;;19.80;9.57;;;;;;;-145.94;70.01;78179.06;5076441;28;20203;-67
2023/05/17 05:25:32;;;;;;;16.50;8.57;;;;;;;-145.94;69.73;78181.09;5076365;28;20211;-67
2023/05/17 05:27:58;;;;;;;21.60;8.60;;;;;;;-145.94;69.77;78185.16;5075964;28;20232;-68
2023/05/17 05:30:26;;;;;;;12.90;8.67;;;;;;;-145.94;69.63;78172.94;5076300;28;20284;-67
2023/05/17 05:32:54;;;;;;;14.80;8.20;;;;;;;-145.94;69.70;78179.06;5076315;28;20239;-67
2023/05/17 05:35:27;;;;;;;14.47;7.93;;;;;;;-145.94;69.53;78177.00;5076129;28;20225;-67
2023/05/17 05:37:56;;;;;;;11.43;7.77;;;;;;;-145.94;69.52;78174.97;5075957;28;20209;-67
2023/05/17 05:40:23;;;;;;;10.00;8.03;;;;;;;-145.94;68.83;78166.81;5094149;28;20235;-67
2023/05/17 05:42:51;;;;;;;17.43;8.10;;;;;;;-145.94;68.88;78154.56;5076287;28;20659;-67
2023/05/17 05:45:19;;;;;;;26.50;8.27;;;;;;;-145.94;68.73;78154.56;5075850;28;20197;-67
2023/05/17 05:47:46;;;;;;;8.80;7.07;;;;;;;-145.94;68.61;78144.38;5075760;28;20217;-67
2023/05/17 05:50:14;;;;;;;12.33;6.97;;;;;;;-145.94;68.67;78136.22;5075047;28;20562;-67
2023/05/17 05:52:42;;;;;;;6.77;6.10;;;;;;;-145.94;68.56;78130.09;5076267;28;20195;-67
2023/05/17 05:55:09;;;;;;;13.90;5.57;;;;;;;-145.94;67.95;78121.94;5093969;28;20193;-67
2023/05/17 05:57:35;;;;;;;12.60;5.47;;;;;;;-145.94;67.58;78109.69;5075690;28;20790;-67
2023/05/17 06:00:03;;;;;;;7.83;6.13;;;;;;;-145.94;67.34;78107.66;5059117;28;20217;-67
2023/05/17 06:02:38;;;;;;;17.50;6.67;;;;;;;-145.94;65.99;78095.41;5093875;28;20174;-67
2023/05/17 06:05:04;;;;;;;18.40;6.17;;;;;;;-145.94;65.30;78089.28;5094369;28;20243;-67
2023/05/17 06:07:31;;;;;;;4.90;4.27;;;;;;;-145.94;64.37;78091.34;5093702;28;20206;-67
2023/05/17 06:09:57;;;;;;;8.57;5.20;;;;;;;-145.94;64.34;78072.97;5094029;28;20181;-67
2023/05/17 06:12:24;;;;;;;11.37;5.47;;;;;;;-145.94;63.81;78064.81;5093638;28;20247;-67
2023/05/17 06:14:50;;;;;;;8.50;4.80;;;;;;;-145.94;63.67;78054.63;5093683;28;20656;-67
2023/05/17 06:17:17;;;;;;;22.80;5.90;;;;;;;-145.94;63.48;78048.50;5075656;28;20209;-67
2023/05/17 06:19:44;;;;;;;6.37;4.53;;;;;;;-145.94;62.85;78046.47;5075438;28;20267;-67
2023/05/17 06:22:10;;;;;;;16.53;5.27;;;;;;;-145.94;62.70;78042.38;5093579;28;20190;-67
2023/05/17 06:24:37;;;;;;;15.50;5.37;;;;;;;-145.94;62.52;78034.22;5093483;28;20189;-67
2023/05/17 06:27:03;;;;;;;14.37;5.57;;;;;;;-145.94;62.24;78034.22;5093502;28;20262;-67
2023/05/17 06:29:30;;;;;;;5.93;4.93;;;;;;;-145.94;61.87;78028.09;5093349;28;20289;-67
2023/05/17 06:31:58;;;;;;;9.07;5.40;;;;;;;-145.94;62.02;78032.19;5093459;28;20186;-67
2023/05/17 06:34:25;;;;;;;14.37;6.83;;;;;;;-145.94;61.93;78026.06;5093491;28;20182;-67
2023/05/17 06:36:51;;;;;;;17.00;5.10;;;;;;;-145.94;61.64;78013.81;5093329;28;20688;-67
2023/05/17 06:39:17;;;;;;;21.07;5.57;;;;;;;-145.94;60.40;78015.88;5093261;28;20251;-67
2023/05/17 06:41:44;;;;;;;11.27;5.23;;;;;;;-145.94;60.46;78001.59;5075227;28;20580;-67
2023/05/17 06:44:15;;;;;;;11.57;5.13;;;;;;;-145.94;61.03;77991.38;5075269;28;20208;-67
2023/05/17 06:46:41;;;;;;;14.17;5.90;;;;;;;-145.94;59.55;78003.63;5093275;28;20232;-67
2023/05/17 06:49:08;;;;;;;5.43;4.93;;;;;;;-145.94;59.55;77997.50;5093276;28;20663;-67
2023/05/17 06:51:34;;;;;;;9.00;5.07;;;;;;;-145.94;60.21;77987.31;5093200;28;20548;-67
2023/05/17 06:54:01;;;;;;;10.43;6.00;;;;;;;-145.94;59.22;77993.44;5093691;28;20243;-67
2023/05/17 06:56:27;;;;;;;10.47;5.10;;;;;;;-145.94;59.22;77991.38;5093121;28;20193;-67
2023/05/17 06:58:54;;;;;;;8.13;5.27;;;;;;;-145.94;58.99;78003.63;5093365;28;20244;-67
2023/05/17 07:01:20;;;;;;;9.07;5.30;;;;;;;-145.94;58.49;77981.19;5093701;28;20597;-67
2023/05/17 07:03:47;;;;;;;5.23;4.33;;;;;;;-145.94;57.99;77985.28;5097455;28;20190;-67
2023/05/17 07:06:13;;;;;;;7.70;4.50;;;;;;;-145.94;57.00;77991.38;5097195;28;20243;-67
2023/05/17 07:08:40;;;;;;;7.43;4.87;;;;;;;-145.94;56.27;77975.06;5097108;28;20255;-67
2023/05/17 07:11:06;;;;;;;13.00;4.67;;;;;;;-145.94;55.69;77968.94;5097109;28;20236;-67
2023/05/17 07:13:32;;;;;;;8.57;4.90;;;;;;;-145.94;56.02;77946.50;5097087;28;20660;-67
2023/05/17 07:15:59;;;;;;;13.70;4.43;;;;;;;-145.94;56.22;77917.97;5097012;28;20198;-67
2023/05/17 07:18:26;;;;;;;8.23;3.57;;;;;;;-145.94;54.36;77924.06;5096874;28;20258;-66
2023/05/17 07:20:52;;;;;;;9.00;4.07;;;;;;;-145.94;53.26;77940.41;5097020;28;20221;-67
2023/05/17 07:23:19;;;;;;;4.50;4.13;;;;;;;-145.94;53.82;77964.88;5097231;28;20190;-67
2023/05/17 07:25:45;;;;;;;9.67;2.97;;;;;;;-145.94;53.81;77977.09;5097430;28;20705;-67
2023/05/17 07:28:12;;;;;;;4.73;3.50;;;;;;;-145.94;54.14;77979.16;5096999;28;20588;-67
2023/05/17 07:30:38;;;;;;;10.10;3.67;;;;;;;-145.94;53.37;77997.50;5097072;28;20564;-67
2023/05/17 07:33:04;;;;;;;3.93;3.73;;;;;;;-145.94;53.43;78007.69;5097321;28;20182;-67
2023/05/17 07:35:31;;;;;;;9.30;3.47;;;;;;;-145.94;52.49;78013.81;5096925;28;20591;-67
2023/05/17 07:37:58;;;;;;;4.60;3.23;;;;;;;-145.94;51.61;77997.50;5096787;28;20210;-66
2023/05/17 07:40:24;;;;;;;4.23;2.50;;;;;;;-145.94;50.95;77981.19;5096477;28;20712;-66
2023/05/17 07:42:51;;;;;;;5.93;3.77;;;;;;;-145.94;51.61;77979.16;5096423;28;20273;-67
2023/05/17 07:45:18;;;;;;;5.40;3.33;;;;;;;-145.94;51.24;77975.06;5097047;28;20542;-67
2023/05/17 07:47:45;;;;;;;13.43;3.33;;;;;;;-145.94;50.70;77962.81;5096561;28;20583;-67
2023/05/17 07:50:11;;;;;;;8.97;3.27;;;;;;;-145.94;48.39;77934.28;5096650;28;20555;-66
2023/05/17 07:52:38;;;;;;;4.43;2.53;;;;;;;-145.94;47.73;77932.22;5096632;28;20192;-67
2023/05/17 07:55:05;;;;;;;6.07;3.10;;;;;;;-145.94;48.84;77922.03;5096296;28;20214;-67
2023/05/17 07:57:31;;;;;;;22.97;3.33;;;;;;;-145.94;49.21;77901.63;5096183;28;20259;-67
2023/05/17 07:59:58;;;;;;;5.20;2.73;;;;;;;-145.94;48.63;77907.75;5096180;28;20615;-67
2023/05/17 08:02:24;;;;;;;11.87;2.93;;;;;;;-145.94;48.93;77891.44;5096167;28;20196;-67
2023/05/17 08:04:51;;;;;;;9.90;3.43;;;;;;;-145.94;48.49;77879.19;5077914;28;20189;-67
2023/05/17 08:07:18;;;;;;;12.60;3.33;;;;;;;-145.94;49.02;77866.97;5095987;28;20213;-67
2023/05/17 08:09:44;;;;;;;3.97;3.00;;;;;;;-145.94;48.62;77871.03;5096385;28;20183;-67
2023/05/17 08:12:11;;;;;;;4.97;2.90;;;;;;;-145.94;46.86;77883.28;5096629;28;20178;-67
2023/05/17 08:14:38;;;;;;;9.40;3.23;;;;;;;-145.94;47.73;77879.19;5095053;28;20570;-67
2023/05/17 08:17:05;;;;;;;4.00;2.57;;;;;;;-145.94;47.13;77869.00;5095735;28;20218;-67
2023/05/17 08:19:31;;;;;;;14.53;2.87;;;;;;;-145.94;47.62;77864.91;5095728;28;20687;-67
2023/05/17 08:21:58;;;;;;;7.60;3.50;;;;;;;-145.94;47.54;77866.97;5096027;28;20286;-67
2023/05/17 08:24:25;;;;;;;7.87;3.73;;;;;;;-145.94;47.99;77850.66;5096070;28;20181;-67
2023/05/17 08:26:52;;;;;;;9.13;2.90;;;;;;;-145.94;48.48;77854.72;5096061;28;20198;-67
2023/05/17 08:29:18;;;;;;;10.03;3.43;;;;;;;-145.94;48.67;77866.97;5095520;28;20578;-67
2023/05/17 08:31:44;;;;;;;5.93;3.03;;;;;;;-145.94;47.94;77881.25;5095597;28;20247;-68
2023/05/17 08:34:11;;;;;;;5.67;3.70;;;;;;;-145.94;48.62;77889.41;5095630;28;20264;-67
2023/05/17 08:36:38;;;;;;;5.07;3.50;;;;;;;-145.94;48.90;77909.78;5095987;28;20213;-67
2023/05/17 08:39:04;;;;;;;6.23;3.77;;;;;;;-145.94;49.12;77901.63;5095578;28;20292;-67
2023/05/17 08:41:31;;;;;;;7.80;3.23;;;;;;;-145.94;49.05;77875.13;5095412;28;20193;-67
2023/05/17 08:43:58;;;;;;;4.97;3.33;;;;;;;-145.94;48.21;77909.78;5077249;28;20238;-68
2023/05/17 08:46:27;;;;;;;5.37;3.10;;;;;;;-145.94;48.93;77926.13;5095243;28;20186;-67
2023/05/17 08:48:58;;;;;;;4.40;4.00;;;;;;;-145.94;49.87;77944.47;5095245;28;20182;-67
2023/05/17 08:51:25;;;;;;;5.47;2.87;;;;;;;-145.94;49.39;77962.81;5095565;28;20261;-67
2023/05/17 08:53:52;;;;;;;5.57;3.77;;;;;;;-145.94;50.64;77948.56;5095757;28;20185;-67
2023/05/17 08:56:20;;;;;;;3.83;3.53;;;;;;;-145.94;50.19;77930.19;5095094;28;20713;-67
2023/05/17 08:58:50;;;;;;;10.60;4.63;;;;;;;-145.94;50.57;77913.88;5095001;28;20263;-67
2023/05/17 09:01:23;;;;;;;6.87;3.73;;;;;;;-145.94;50.96;77907.75;5095392;28;20166;-67
2023/05/17 09:03:52;;;;;;;9.33;3.60;;;;;;;-145.94;47.39;77907.75;5095265;28;20609;-67
2023/05/17 09:06:21;;;;;;;5.23;3.60;;;;;;;-145.94;47.77;77905.72;5077595;28;20193;-67
2023/05/17 09:08:51;;;;;;;3.70;3.57;;;;;;;-145.94;47.73;77891.44;5095253;28;20186;-66
2023/05/17 09:11:28;;;;;;;8.90;3.43;;;;;;;-145.94;47.18;77895.53;5095155;28;20540;-67
2023/05/17 09:14:00;;;;;;;9.77;4.30;;;;;;;-145.94;49.20;77917.97;5094826;28;20174;-67
2023/05/17 09:16:32;;;;;;;8.07;4.87;;;;;;;-145.94;47.50;77926.13;5094671;28;20182;-68
2023/05/17 09:18:58;;;;;;;7.33;2.97;;;;;;;-145.94;47.48;77928.16;5095245;28;20205;-67
2023/05/17 09:21:27;;;;;;;7.93;3.73;;;;;;;-145.94;47.57;77907.75;5095163;28;20186;-67
2023/05/17 09:23:54;;;;;;;7.73;3.20;;;;;;;-145.94;47.81;77891.44;5094617;28;20190;-67
2023/05/17 09:26:42;;;;;;;6.87;2.87;;;;;;;-145.94;47.81;77893.47;5095068;28;20174;-67
2023/05/17 09:29:11;;;;;;;6.80;3.17;;;;;;;-145.94;47.09;77909.78;5094467;28;20192;-67
2023/05/17 09:31:38;;;;;;;7.37;3.77;;;;;;;-145.94;45.83;77911.84;5095004;28;20609;-67
2023/05/17 09:34:08;;;;;;;5.20;3.20;;;;;;;-145.94;46.60;77911.84;5094436;28;20186;-67
2023/05/17 09:36:36;;;;;;;3.43;3.17;;;;;;;-145.94;45.87;77899.59;5094246;28;20186;-67
2023/05/17 09:39:04;;;;;;;3.83;3.57;;;;;;;-145.94;46.44;77873.09;5094751;28;20671;-67
2023/05/17 09:41:39;;;;;;;3.60;3.30;;;;;;;-145.94;46.98;77862.88;5094233;28;20190;-67
2023/05/17 09:44:10;;;;;;;4.67;3.40;;;;;;;-145.94;46.34;77860.84;5094544;28;20177;-67
2023/05/17 09:46:40;;;;;;;9.57;3.70;;;;;;;-145.94;45.84;77862.88;5094386;28;20540;-67
2023/05/17 09:49:08;;;;;;;3.00;2.80;;;;;;;-145.94;45.43;77864.91;5094523;28;20513;-67
2023/05/17 09:51:37;;;;;;;3.20;3.00;;;;;;;-145.94;45.34;77848.59;5094069;28;20678;-67
2023/05/17 09:54:06;;;;;;;9.43;3.13;;;;;;;-145.94;46.23;77848.59;5094282;28;20652;-67
2023/05/17 09:56:33;;;;;;;6.63;3.20;;;;;;;-145.94;46.63;77848.59;5094072;28;20178;-67
2023/05/17 09:59:01;;;;;;;9.00;2.77;;;;;;;-145.94;45.67;77838.41;5094152;28;20239;-67
2023/05/17 10:01:29;;;;;;;5.90;2.77;;;;;;;-145.94;46.23;77820.06;5093853;28;20192;-67
2023/05/17 10:04:03;;;;;;;6.07;4.00;;;;;;;-145.94;46.41;77809.84;5093897;28;20220;-67
2023/05/17 10:06:30;;;;;;;8.47;3.63;;;;;;;-145.94;46.28;77834.31;5094128;28;20253;-68
2023/05/17 10:09:14;;;;;;;6.57;3.80;;;;;;;-145.94;47.49;77844.53;5094085;28;20243;-67
2023/05/17 10:11:45;;;;;;;3.70;3.60;;;;;;;-145.94;47.10;77840.44;5093991;28;20190;-67
2023/05/17 10:14:21;;;;;;;5.37;4.10;;;;;;;-145.94;48.01;77838.41;5094027;28;20215;-68
2023/05/17 10:16:50;;;;;;;4.73;3.00;;;;;;;-145.94;47.56;77822.09;5093937;28;20220;-67
2023/05/17 10:19:18;;;;;;;4.23;3.97;;;;;;;-145.94;44.82;77830.25;5093817;28;20206;-68
2023/05/17 10:21:57;;;;;;;4.03;3.53;;;;;;;-145.94;45.04;77828.22;5094134;28;20273;-67
2023/05/17 10:24:36;;;;;;;7.90;3.57;;;;;;;-145.94;46.87;77842.47;5093850;28;20182;-67
2023/05/17 10:27:06;;;;;;;5.03;3.53;;;;;;;-145.94;45.94;77848.59;5093452;28;20217;-67
2023/05/17 10:29:35;;;;;;;7.87;3.47;;;;;;;-145.94;46.48;77836.38;5093383;28;20192;-67
2023/05/17 10:32:06;;;;;;;2.67;2.47;;;;;;;-145.94;46.48;77824.13;5093447;28;20201;-67
2023/05/17 10:34:34;;;;;;;7.77;4.07;;;;;;;-145.94;45.02;77813.94;5093745;28;20624;-68
2023/05/17 10:37:03;;;;;;;4.07;3.80;;;;;;;-145.94;45.03;77809.84;5092841;28;20227;-67
2023/05/17 10:39:33;;;;;;;3.30;3.20;;;;;;;-145.94;45.52;77799.66;5093351;28;20707;-67
2023/05/17 10:42:02;;;;;;;5.60;3.13;;;;;;;-145.94;45.54;77779.25;5093656;28;20189;-67
2023/05/17 10:44:41;;;;;;;5.67;3.57;;;;;;;-145.94;46.07;77781.28;5093380;28;20637;-67
2023/05/17 10:47:10;;;;;;;7.40;2.97;;;;;;;-145.94;43.51;77775.19;5092954;28;20711;-67
2023/05/17 10:49:41;;;;;;;4.10;3.80;;;;;;;-145.94;42.91;77781.28;5093490;28;20652;-67
2023/05/17 10:52:14;;;;;;;5.07;3.80;;;;;;;-145.94;43.16;77762.94;5093567;28;20200;-67
2023/05/17 10:54:42;;;;;;;6.20;3.37;;;;;;;-145.94;42.82;77752.75;5093253;28;20540;-67
2023/05/17 10:57:20;;;;;;;5.87;3.23;;;;;;;-145.94;42.81;77760.91;5093185;28;20238;-67
2023/05/17 11:00:07;;;;;;;5.37;3.60;;;;;;;-145.94;43.35;77754.78;5093690;28;20189;-67
2023/05/17 11:02:39;;;;;;;8.40;3.53;;;;;;;-145.94;43.75;77752.75;5093494;28;20189;-67
2023/05/17 11:05:06;;;;;;;3.73;2.77;;;;;;;-145.94;43.54;77746.63;5075069;28;20193;-67
2023/05/17 11:07:36;;;;;;;3.70;2.93;;;;;;;-145.94;42.33;77744.59;5093132;28;20213;-67
2023/05/17 11:10:07;;;;;;;3.43;2.97;;;;;;;-145.94;42.89;77746.63;5093051;28;20256;-67
2023/05/17 11:12:42;;;;;;;5.50;3.23;;;;;;;-145.94;42.73;77752.75;5093072;28;20183;-67
2023/05/17 11:15:22;;;;;;;2.93;2.77;;;;;;;-145.94;42.23;77752.75;5075008;28;20204;-67
2023/05/17 11:17:55;;;;;;;6.07;3.67;;;;;;;-145.94;41.88;77738.47;5093254;28;20294;-67
2023/05/17 11:20:24;;;;;;;3.63;3.23;;;;;;;-145.94;41.59;77732.34;5092958;28;20202;-67